Jacksonville, FL (32224)

6:08 AM EDT on July 23, 2016 (GMT -0400)
Jax Golf | | Change Station

Elev 39 ft 30.28 °N, 81.48 °W | Updated 8 hours ago

Clear
Clear
78 °F
Feels Like 78 °F
N
1
Wind Variable Wind from West
Gusts mph

Today
High -- | Low -- °F
--% Chance of Precip.
Yesterday
High -- | Low -- °F
Precip. -- in
Pressure 30.02 in
Visibility 10.0 miles
Clouds Clear
Dew Point 72 °F
Humidity 83%
Rainfall in
Snow Depth Not available.
6:39 AM 8:25 PM
Waning Gibbous, 86% visible
METAR KCRG 230953Z AUTO 00000KT 10SM CLR 23/21 A3002 RMK AO2 SLP166 T02280211 PNO $
Pressure 30.02 in
Visibility 10.0 miles
Clouds Clear
Dew Point 72 °F
Humidity 83%
Rainfall in
Snow Depth Not available.
6:39 AM 8:25 PM
Waning Gibbous, 86% visible
METAR KCRG 230953Z AUTO 00000KT 10SM CLR 23/21 A3002 RMK AO2 SLP166 T02280211 PNO $

10-Day Weather Forecast

Almanac

Astronomy

Jul. 23, 2016 Rise Set
Actual Time
Civil Twilight
Nautical Twilight
Astronomical Twilight
Moon
Length of Visible Light
Length of Day
Tomorrow will be .
, % of the Moon is Illuminated

Today's Extremes

State Highs State Lows

Community

WunderPhotos

Upload Photos

1,926,790 photos uploaded!

WunderBlog® & News

Nearby

Air Quality

  Air Quality AQ Index Pollutant
Not available.

Snow Depth

Station Depth Elevation

Earthquake Activity

City Distance Mag. Time & Date
Minimum magnitude displayed is 2.5.

Coastal Water Temperatures

Place Temperature

Stations

Nearby Weather Stations

Station Location Temp. Windchill Dew Point Humidity Wind Precip. Elev Updated Type
                   

Watches & Warnings

There are currently no watches in effect.